Ljubljana, Slovenia
Current Conditions -  °F | °C
As of 11:00 AM on Saturday 22 Nov 2014 (Local Time) from LJLJ Reporting Station
Moderate Fog Moderate Fog  
Wind Chill: 39°   Ceiling: 100
Heat Index: 39°   Visibility: 0.18mi
Dew Point: 39°   Wind: 2mph
Humidity: 100%   Direction: NA
Pressure: 30.3"   Gusts: NA
Location:  46.06°N, 14.51°E
Report Text: LJLJ 220900Z VRB02KT 0300 R30/0400N FG VV001 04/04 Q1026 NOSIG
Loading
Personal Weather Stations






























Interactive Weather Map New forecast layout! Learn more

10-Day Weather Forecast

Advertisements
Track Severe Weather on mobile